Time;durP1;ratioP1;P1;durP2;ratioP2;P2;SDS_P1;SDS_P2;PMS_P1;PMS_P2;Temp;Humidity;BMP_temperature;BMP_pressure;BME280_temperature;BME280_humidity;BME280_pressure;Samples;Min_cycle;Max_cycle;Signal;HPM_P1;HPM_P2
2022/06/10 00:02:03;;;;;;;;;;;;;;;;;;5110080;28;20306;-79
2022/06/10 00:04:32;;;;;;;;;;;;;;;;;;5080503;28;19915;-78
2022/06/10 00:06:58;;;;;;;;;;;;;;;;;;5088730;28;19916;-79
2022/06/10 00:09:23;;;;;;;;;;;;;;;;;;5083640;28;20390;-79
2022/06/10 00:11:49;;;;;;;;;;;;;;;;;;5111411;28;19911;-78
2022/06/10 00:14:14;;;;;;;;;;;;;;;;;;5056833;28;20283;-79
2022/06/10 00:16:40;;;;;;;;;;;;;;;;;;5088875;28;19973;-78
2022/06/10 00:19:06;;;;;;;;;;;;;;;;;;5113797;28;20323;-79
2022/06/10 00:21:31;;;;;;;;;;;;;;;;;;5101695;28;19920;-78
2022/06/10 00:23:56;;;;;;;;;;;;;;;;;;5102580;28;19930;-78
2022/06/10 00:26:22;;;;;;;;;;;;;;;;;;5107720;28;19912;-78
2022/06/10 00:28:59;;;;;;;;;;;;;;;;;;5079004;28;19981;-79
2022/06/10 00:31:26;;;;;;;;;;;;;;;;;;5098683;28;19942;-78
2022/06/10 00:33:54;;;;;;;;;;;;;;;;;;5091406;28;20407;-79
2022/06/10 00:36:20;;;;;;;;;;;;;;;;;;5107473;28;19915;-78
2022/06/10 00:38:46;;;;;;;;;;;;;;;;;;5077598;28;19912;-79
2022/06/10 00:41:12;;;;;;;;;;;;;;;;;;5077386;28;19973;-80
2022/06/10 00:43:37;;;;;;;;;;;;;;;;;;5109706;28;20493;-80
2022/06/10 00:46:02;;;;;;;;;;;;;;;;;;5106554;28;19912;-78
2022/06/10 00:48:28;;;;;;;;;;;;;;;;;;5081548;28;19922;-77
2022/06/10 00:50:53;;;;;;;;;;;;;;;;;;5101671;28;19965;-77
2022/06/10 00:53:19;;;;;;;;;;;;;;;;;;5105532;28;19920;-77
2022/06/10 00:55:44;;;;;;;;;;;;;;;;;;5089178;28;19998;-77
2022/06/10 00:58:10;;;;;;;;;;;;;;;;;;5091387;28;19979;-77
2022/06/10 01:00:37;;;;;;;;;;;;;;;;;;5094299;28;19916;-77
2022/06/10 01:03:03;;;;;;;;;;;;;;;;;;5103142;28;19919;-76
2022/06/10 01:05:28;;;;;;;;;;;;;;;;;;5096359;28;19912;-77
2022/06/10 01:07:54;;;;;;;;;;;;;;;;;;5108298;28;19934;-80
2022/06/10 01:10:19;;;;;;;;;;;;;;;;;;5079969;28;19912;-77
2022/06/10 01:12:44;;;;;;;;;;;;;;;;;;5096747;28;19908;-79
2022/06/10 01:15:13;;;;;;;;;;;;;;;;;;5074029;28;19920;-78
2022/06/10 01:17:38;;;;;;;;;;;;;;;;;;5080745;28;19916;-77
2022/06/10 01:20:04;;;;;;;;;;;;;;;;;;5110467;28;20409;-78
2022/06/10 01:22:29;;;;;;;;;;;;;;;;;;5066897;28;19933;-75
2022/06/10 01:24:55;;;;;;;;;;;;;;;;;;5112554;28;19916;-78
2022/06/10 01:30:08;;;;;;;;;;;;;;;;;;5089831;28;19912;-79
2022/06/10 01:32:34;;;;;;;;;;;;;;;;;;5080886;28;19913;-79
2022/06/10 01:34:59;;;;;;;;;;;;;;;;;;5094047;28;19919;-79
2022/06/10 01:37:25;;;;;;;;;;;;;;;;;;5107848;28;20082;-78
2022/06/10 01:39:53;;;;;;;;;;;;;;;;;;5112911;28;19964;-78
2022/06/10 01:42:22;;;;;;;;;;;;;;;;;;5107137;27;19916;-78
2022/06/10 01:44:54;;;;;;;;;;;;;;;;;;5083678;28;19955;-79
2022/06/10 01:47:19;;;;;;;;;;;;;;;;;;5107071;28;20271;-78
2022/06/10 01:49:45;;;;;;;;;;;;;;;;;;5077324;28;20366;-79
2022/06/10 01:52:10;;;;;;;;;;;;;;;;;;5097226;28;19912;-79
2022/06/10 01:54:36;;;;;;;;;;;;;;;;;;5103850;28;20405;-78
2022/06/10 01:57:01;;;;;;;;;;;;;;;;;;5104667;28;19920;-78
2022/06/10 01:59:27;;;;;;;;;;;;;;;;;;5096635;28;19912;-79
2022/06/10 02:01:52;;;;;;;;;;;;;;;;;;5106020;28;20279;-79
2022/06/10 02:04:21;;;;;;;;;;;;;;;;;;5095938;28;19957;-78
2022/06/10 02:06:52;;;;;;;;;;;;;;;;;;5090536;28;20066;-78
2022/06/10 02:09:17;;;;;;;;;;;;;;;;;;5107704;28;19920;-78
2022/06/10 02:11:43;;;;;;;;;;;;;;;;;;5111521;28;19979;-79
2022/06/10 02:14:08;;;;;;;;;;;;;;;;;;5127923;28;19912;-78
2022/06/10 02:16:33;;;;;;;;;;;;;;;;;;5114045;28;19916;-79
2022/06/10 02:19:02;;;;;;;;;;;;;;;;;;5116458;28;19918;-80
2022/06/10 02:21:28;;;;;;;;;;;;;;;;;;5088405;28;20307;-78
2022/06/10 02:23:54;;;;;;;;;;;;;;;;;;5084663;28;20414;-79
2022/06/10 02:26:19;;;;;;;;;;;;;;;;;;5116728;28;19916;-77
2022/06/10 02:28:45;;;;;;;;;;;;;;;;;;5083107;28;20379;-78
2022/06/10 02:31:10;;;;;;;;;;;;;;;;;;5112622;28;19914;-77
2022/06/10 02:33:36;;;;;;;;;;;;;;;;;;5108719;28;19919;-77
2022/06/10 02:36:02;;;;;;;;;;;;;;;;;;5084090;28;20015;-79
2022/06/10 02:38:27;;;;;;;;;;;;;;;;;;5079975;28;20862;-78
2022/06/10 02:40:53;;;;;;;;;;;;;;;;;;5105609;28;19912;-77
2022/06/10 02:43:18;;;;;;;;;;;;;;;;;;5100190;28;19919;-77
2022/06/10 02:45:44;;;;;;;;;;;;;;;;;;5077506;28;20391;-78
2022/06/10 02:48:09;;;;;;;;;;;;;;;;;;5100978;28;20249;-77
2022/06/10 02:50:34;;;;;;;;;;;;;;;;;;5095074;28;19956;-80
2022/06/10 02:53:00;;;;;;;;;;;;;;;;;;5095157;28;20313;-78
2022/06/10 02:55:25;;;;;;;;;;;;;;;;;;5110324;28;20333;-78
2022/06/10 03:03:19;;;;;;;;;;;;;;;;;;5107703;28;20382;-79
2022/06/10 03:05:44;;;;;;;;;;;;;;;;;;5098014;28;20023;-79
2022/06/10 03:08:10;;;;;;;;;;;;;;;;;;5096836;28;19912;-78
2022/06/10 03:10:35;;;;;;;;;;;;;;;;;;5078605;28;20317;-79
2022/06/10 03:13:01;;;;;;;;;;;;;;;;;;5101794;28;19963;-78
2022/06/10 03:15:27;;;;;;;;;;;;;;;;;;5102338;28;19912;-79
2022/06/10 03:17:53;;;;;;;;;;;;;;;;;;5123011;28;20405;-78
2022/06/10 03:20:18;;;;;;;;;;;;;;;;;;5111125;28;19911;-77
2022/06/10 03:22:44;;;;;;;;;;;;;;;;;;5116051;28;19908;-78
2022/06/10 03:25:09;;;;;;;;;;;;;;;;;;5110962;28;19961;-79
2022/06/10 03:27:35;;;;;;;;;;;;;;;;;;5095462;28;20287;-77
2022/06/10 03:30:00;;;;;;;;;;;;;;;;;;5114761;28;19933;-76
2022/06/10 03:32:26;;;;;;;;;;;;;;;;;;5133832;28;19937;-78
2022/06/10 03:34:51;;;;;;;;;;;;;;;;;;5121599;28;19923;-79
2022/06/10 03:37:17;;;;;;;;;;;;;;;;;;5108297;28;19915;-78
2022/06/10 03:39:43;;;;;;;;;;;;;;;;;;5117292;28;19912;-77
2022/06/10 03:42:09;;;;;;;;;;;;;;;;;;5120243;28;19926;-77
2022/06/10 03:44:35;;;;;;;;;;;;;;;;;;5114070;28;19902;-78
2022/06/10 03:47:00;;;;;;;;;;;;;;;;;;5124127;28;19951;-78
2022/06/10 03:49:26;;;;;;;;;;;;;;;;;;5128193;28;19976;-77
2022/06/10 03:51:51;;;;;;;;;;;;;;;;;;5116095;28;19912;-77
2022/06/10 03:54:18;;;;;;;;;;;;;;;;;;5130849;28;19955;-77
2022/06/10 03:56:43;;;;;;;;;;;;;;;;;;5121793;28;19926;-77
2022/06/10 03:59:08;;;;;;;;;;;;;;;;;;5108800;28;19936;-75
2022/06/10 04:01:34;;;;;;;;;;;;;;;;;;5115607;28;19965;-78
2022/06/10 04:03:59;;;;;;;;;;;;;;;;;;5127255;28;19943;-79
2022/06/10 04:06:25;;;;;;;;;;;;;;;;;;5114784;28;19942;-78
2022/06/10 04:08:50;;;;;;;;;;;;;;;;;;5089552;28;19912;-76
2022/06/10 04:11:16;;;;;;;;;;;;;;;;;;5100858;28;19923;-78
2022/06/10 04:13:41;;;;;;;;;;;;;;;;;;5112859;28;19912;-78
2022/06/10 04:16:06;;;;;;;;;;;;;;;;;;5079517;28;19912;-77
2022/06/10 04:18:32;;;;;;;;;;;;;;;;;;5095710;28;20297;-76
2022/06/10 04:20:58;;;;;;;;;;;;;;;;;;5104029;28;19951;-77
2022/06/10 04:23:23;;;;;;;;;;;;;;;;;;5115545;28;19912;-77
2022/06/10 04:25:48;;;;;;;;;;;;;;;;;;5100972;28;19912;-76
2022/06/10 04:28:14;;;;;;;;;;;;;;;;;;5100888;28;19912;-76
2022/06/10 04:30:39;;;;;;;;;;;;;;;;;;5099157;28;19911;-78
2022/06/10 04:33:05;;;;;;;;;;;;;;;;;;5085189;28;20351;-76
2022/06/10 04:35:30;;;;;;;;;;;;;;;;;;5118758;28;19912;-78
2022/06/10 04:37:57;;;;;;;;;;;;;;;;;;5103165;28;19916;-76
2022/06/10 04:40:22;;;;;;;;;;;;;;;;;;5093849;28;19922;-78
2022/06/10 04:42:48;;;;;;;;;;;;;;;;;;5106829;28;20010;-76
2022/06/10 04:45:13;;;;;;;;;;;;;;;;;;5105291;28;19912;-78
2022/06/10 04:47:39;;;;;;;;;;;;;;;;;;5095645;28;19912;-79
2022/06/10 04:50:04;;;;;;;;;;;;;;;;;;5084320;28;20297;-77
2022/06/10 04:52:29;;;;;;;;;;;;;;;;;;5103239;28;20294;-79
2022/06/10 04:54:58;;;;;;;;;;;;;;;;;;5088755;28;19913;-80
2022/06/10 04:57:26;;;;;;;;;;;;;;;;;;5085260;28;19916;-79
2022/06/10 04:59:55;;;;;;;;;;;;;;;;;;5096971;28;19912;-78
2022/06/10 05:02:21;;;;;;;;;;;;;;;;;;5066884;28;19912;-79
2022/06/10 05:04:47;;;;;;;;;;;;;;;;;;5060768;28;20299;-78
2022/06/10 05:07:12;;;;;;;;;;;;;;;;;;5098828;28;20007;-78
2022/06/10 05:09:38;;;;;;;;;;;;;;;;;;5095084;28;19959;-79
2022/06/10 05:12:03;;;;;;;;;;;;;;;;;;5091302;28;19913;-78
2022/06/10 05:14:29;;;;;;;;;;;;;;;;;;5055896;28;19912;-78
2022/06/10 05:16:56;;;;;;;;;;;;;;;;;;5094447;28;19920;-79
2022/06/10 05:19:21;;;;;;;;;;;;;;;;;;5105874;28;20378;-77
2022/06/10 05:21:46;;;;;;;;;;;;;;;;;;5077844;28;19957;-77
2022/06/10 05:24:12;;;;;;;;;;;;;;;;;;5104460;28;19913;-78
2022/06/10 05:26:37;;;;;;;;;;;;;;;;;;5100214;28;20544;-77
2022/06/10 05:29:03;;;;;;;;;;;;;;;;;;5082721;28;19942;-78
2022/06/10 05:31:28;;;;;;;;;;;;;;;;;;5106525;28;20313;-79
2022/06/10 05:36:42;;;;;;;;;;;;;;;;;;5087711;28;19916;-77
2022/06/10 05:39:11;;;;;;;;;;;;;;;;;;5086920;28;19915;-78
2022/06/10 05:44:21;;;;;;;;;;;;;;;;;;5065382;28;20278;-79
2022/06/10 05:46:46;;;;;;;;;;;;;;;;;;5085337;28;19923;-79
2022/06/10 05:49:11;;;;;;;;;;;;;;;;;;5103509;28;20330;-78
2022/06/10 05:51:37;;;;;;;;;;;;;;;;;;5098570;28;19912;-78
2022/06/10 05:54:03;;;;;;;;;;;;;;;;;;5092778;28;19958;-80
2022/06/10 05:56:28;;;;;;;;;;;;;;;;;;5081919;28;19919;-80
2022/06/10 05:58:54;;;;;;;;;;;;;;;;;;5107034;28;19966;-78
2022/06/10 06:01:22;;;;;;;;;;;;;;;;;;5096142;28;19946;-79
2022/06/10 06:03:48;;;;;;;;;;;;;;;;;;5095053;28;19915;-79
2022/06/10 06:06:13;;;;;;;;;;;;;;;;;;5100790;28;20296;-79
2022/06/10 06:08:39;;;;;;;;;;;;;;;;;;5087240;28;19961;-79
2022/06/10 06:11:04;;;;;;;;;;;;;;;;;;5094966;28;19919;-80
2022/06/10 06:13:29;;;;;;;;;;;;;;;;;;5098352;28;20289;-79
2022/06/10 06:15:56;;;;;;;;;;;;;;;;;;5099489;28;19912;-80
2022/06/10 06:18:22;;;;;;;;;;;;;;;;;;5111234;28;19920;-79
2022/06/10 06:20:47;;;;;;;;;;;;;;;;;;5085361;28;20501;-79
2022/06/10 06:23:13;;;;;;;;;;;;;;;;;;5084147;28;19912;-79
2022/06/10 06:25:38;;;;;;;;;;;;;;;;;;5114884;28;20339;-79
2022/06/10 06:28:04;;;;;;;;;;;;;;;;;;5098575;28;19907;-78
2022/06/10 06:30:32;;;;;;;;;;;;;;;;;;5117906;28;20359;-79
2022/06/10 06:32:58;;;;;;;;;;;;;;;;;;5107450;28;19979;-78
2022/06/10 06:35:23;;;;;;;;;;;;;;;;;;5083798;28;20371;-79
2022/06/10 06:37:49;;;;;;;;;;;;;;;;;;5102453;28;19966;-78
2022/06/10 06:40:14;;;;;;;;;;;;;;;;;;5095925;28;19912;-80
2022/06/10 06:42:40;;;;;;;;;;;;;;;;;;5064761;28;19912;-82
2022/06/10 06:45:07;;;;;;;;;;;;;;;;;;5103070;28;20071;-81
2022/06/10 06:47:32;;;;;;;;;;;;;;;;;;5110427;28;19959;-82
2022/06/10 06:49:58;;;;;;;;;;;;;;;;;;5101107;28;19916;-80
2022/06/10 06:52:26;;;;;;;;;;;;;;;;;;5074572;28;19965;-80
2022/06/10 06:54:51;;;;;;;;;;;;;;;;;;5087764;28;19962;-79
2022/06/10 06:57:18;;;;;;;;;;;;;;;;;;5078884;28;19916;-79
2022/06/10 06:59:43;;;;;;;;;;;;;;;;;;5092628;28;19937;-80
2022/06/10 07:02:10;;;;;;;;;;;;;;;;;;5110324;28;20343;-80
2022/06/10 07:04:35;;;;;;;;;;;;;;;;;;5101867;28;19947;-79
2022/06/10 07:07:02;;;;;;;;;;;;;;;;;;5069110;28;19951;-80
2022/06/10 07:09:29;;;;;;;;;;;;;;;;;;5106156;28;19927;-79
2022/06/10 07:11:55;;;;;;;;;;;;;;;;;;5067959;28;19923;-79
2022/06/10 07:14:33;;;;;;;;;;;;;;;;;;5079139;28;19912;-79
2022/06/10 07:16:59;;;;;;;;;;;;;;;;;;5071031;28;19922;-79
2022/06/10 07:19:24;;;;;;;;;;;;;;;;;;5100968;28;19908;-79
2022/06/10 07:21:50;;;;;;;;;;;;;;;;;;5093012;28;19912;-80
2022/06/10 07:24:15;;;;;;;;;;;;;;;;;;5074512;28;19920;-79
2022/06/10 07:26:41;;;;;;;;;;;;;;;;;;5093994;28;19912;-79
2022/06/10 07:29:06;;;;;;;;;;;;;;;;;;5105776;28;19947;-80
2022/06/10 07:31:32;;;;;;;;;;;;;;;;;;5103869;28;19912;-80
2022/06/10 07:33:58;;;;;;;;;;;;;;;;;;5079655;28;20361;-80
2022/06/10 07:36:23;;;;;;;;;;;;;;;;;;5083799;28;20368;-79
2022/06/10 07:38:48;;;;;;;;;;;;;;;;;;5076863;28;20398;-80
2022/06/10 07:43:58;;;;;;;;;;;;;;;;;;5081168;28;19916;-84
2022/06/10 07:46:24;;;;;;;;;;;;;;;;;;5059943;28;19967;-85
2022/06/10 07:48:52;;;;;;;;;;;;;;;;;;5059953;28;19918;-85
2022/06/10 07:51:18;;;;;;;;;;;;;;;;;;5100624;28;19919;-86
2022/06/10 07:53:44;;;;;;;;;;;;;;;;;;5112027;28;19911;-86
2022/06/10 07:56:09;;;;;;;;;;;;;;;;;;5073963;28;20308;-87
2022/06/10 07:58:35;;;;;;;;;;;;;;;;;;5089136;28;19915;-86
2022/06/10 08:01:00;;;;;;;;;;;;;;;;;;5107335;28;19912;-86
2022/06/10 08:03:26;;;;;;;;;;;;;;;;;;5106686;28;19972;-84
2022/06/10 08:05:52;;;;;;;;;;;;;;;;;;5094405;28;20436;-85
2022/06/10 08:08:18;;;;;;;;;;;;;;;;;;5092471;28;19931;-85
2022/06/10 08:10:43;;;;;;;;;;;;;;;;;;5087775;28;20347;-86
2022/06/10 08:13:09;;;;;;;;;;;;;;;;;;5082096;28;19980;-86
2022/06/10 08:15:34;;;;;;;;;;;;;;;;;;5094613;28;19964;-86
2022/06/10 08:18:03;;;;;;;;;;;;;;;;;;5111485;28;19954;-85
2022/06/10 08:23:12;;;;;;;;;;;;;;;;;;5101625;28;20194;-85
2022/06/10 08:25:38;;;;;;;;;;;;;;;;;;5109966;28;20458;-86
2022/06/10 08:28:03;;;;;;;;;;;;;;;;;;5093300;28;19919;-85
2022/06/10 08:30:29;;;;;;;;;;;;;;;;;;5095123;28;19912;-86
2022/06/10 08:32:54;;;;;;;;;;;;;;;;;;5081508;28;19928;-86
2022/06/10 08:35:19;;;;;;;;;;;;;;;;;;5091846;28;20389;-86
2022/06/10 08:37:45;;;;;;;;;;;;;;;;;;5114075;28;19951;-85
2022/06/10 08:40:10;;;;;;;;;;;;;;;;;;5101414;28;19926;-86
2022/06/10 08:42:36;;;;;;;;;;;;;;;;;;5126525;28;19923;-82
2022/06/10 08:45:02;;;;;;;;;;;;;;;;;;5091238;28;19908;-84
2022/06/10 08:47:27;;;;;;;;;;;;;;;;;;5073524;28;19914;-83
2022/06/10 08:49:53;;;;;;;;;;;;;;;;;;5104055;28;20363;-81
2022/06/10 08:52:18;;;;;;;;;;;;;;;;;;5113667;28;19923;-82
2022/06/10 08:54:44;;;;;;;;;;;;;;;;;;5104913;28;19964;-80
2022/06/10 08:57:09;;;;;;;;;;;;;;;;;;5104295;28;20267;-82
2022/06/10 08:59:34;;;;;;;;;;;;;;;;;;5099620;28;19912;-78
2022/06/10 09:02:02;;;;;;;;;;;;;;;;;;5106681;28;19934;-83
2022/06/10 09:04:27;;;;;;;;;;;;;;;;;;5082287;28;20431;-84
2022/06/10 09:06:53;;;;;;;;;;;;;;;;;;5085762;28;19912;-83
2022/06/10 09:09:18;;;;;;;;;;;;;;;;;;5106161;28;19916;-83
2022/06/10 09:11:44;;;;;;;;;;;;;;;;;;5090819;28;19958;-84
2022/06/10 09:14:09;;;;;;;;;;;;;;;;;;5104100;28;19920;-83
2022/06/10 09:16:35;;;;;;;;;;;;;;;;;;5063392;28;19940;-84
2022/06/10 09:19:01;;;;;;;;;;;;;;;;;;5093376;28;19915;-83
2022/06/10 09:21:26;;;;;;;;;;;;;;;;;;5096746;28;20384;-84
2022/06/10 09:23:51;;;;;;;;;;;;;;;;;;5093489;28;20386;-84
2022/06/10 09:26:17;;;;;;;;;;;;;;;;;;5100335;28;20002;-83
2022/06/10 09:28:42;;;;;;;;;;;;;;;;;;5087963;28;19919;-86
2022/06/10 09:31:08;;;;;;;;;;;;;;;;;;5105987;28;19915;-86
2022/06/10 09:33:33;;;;;;;;;;;;;;;;;;5082785;28;19920;-86
2022/06/10 09:35:59;;;;;;;;;;;;;;;;;;5116048;28;19927;-84
2022/06/10 09:38:24;;;;;;;;;;;;;;;;;;5103630;28;19922;-85
2022/06/10 09:40:50;;;;;;;;;;;;;;;;;;5110157;28;19912;-87
2022/06/10 09:43:15;;;;;;;;;;;;;;;;;;5081302;28;19923;-86
2022/06/10 09:45:41;;;;;;;;;;;;;;;;;;5112576;28;19919;-86
2022/06/10 09:48:06;;;;;;;;;;;;;;;;;;5075798;28;19919;-86
2022/06/10 09:50:32;;;;;;;;;;;;;;;;;;5089651;28;19938;-86
2022/06/10 09:52:58;;;;;;;;;;;;;;;;;;5116191;27;19990;-86
2022/06/10 09:55:24;;;;;;;;;;;;;;;;;;5082326;28;19919;-86
2022/06/10 09:57:49;;;;;;;;;;;;;;;;;;5098672;28;19912;-87
2022/06/10 10:00:17;;;;;;;;;;;;;;;;;;5095748;28;19919;-86
2022/06/10 10:02:42;;;;;;;;;;;;;;;;;;5104017;28;19959;-85
2022/06/10 10:05:07;;;;;;;;;;;;;;;;;;5076448;28;20386;-86
2022/06/10 10:07:33;;;;;;;;;;;;;;;;;;5094984;28;20330;-82
2022/06/10 10:09:58;;;;;;;;;;;;;;;;;;5111260;28;19927;-82
2022/06/10 10:12:24;;;;;;;;;;;;;;;;;;5113069;28;20006;-84
2022/06/10 10:14:49;;;;;;;;;;;;;;;;;;5107080;28;19937;-87
2022/06/10 10:17:15;;;;;;;;;;;;;;;;;;5092359;28;20372;-83
2022/06/10 10:19:43;;;;;;;;;;;;;;;;;;5083650;28;19912;-88
2022/06/10 10:22:11;;;;;;;;;;;;;;;;;;5084675;28;19944;-86
2022/06/10 10:24:36;;;;;;;;;;;;;;;;;;5107263;28;19977;-86
2022/06/10 10:27:02;;;;;;;;;;;;;;;;;;5097757;28;20023;-86
2022/06/10 10:29:27;;;;;;;;;;;;;;;;;;5102107;28;19969;-87
2022/06/10 10:31:53;;;;;;;;;;;;;;;;;;5121192;28;20399;-87
2022/06/10 10:34:21;;;;;;;;;;;;;;;;;;5099853;28;19912;-85
2022/06/10 10:36:46;;;;;;;;;;;;;;;;;;5093444;28;20286;-85
2022/06/10 10:39:12;;;;;;;;;;;;;;;;;;5109323;28;20311;-84
2022/06/10 10:41:38;;;;;;;;;;;;;;;;;;5080618;28;19918;-83
2022/06/10 10:44:05;;;;;;;;;;;;;;;;;;5094010;28;20388;-82
2022/06/10 10:46:30;;;;;;;;;;;;;;;;;;5106418;28;19938;-86
2022/06/10 10:48:57;;;;;;;;;;;;;;;;;;5105059;28;19924;-86
2022/06/10 10:51:22;;;;;;;;;;;;;;;;;;5101495;28;19916;-87
2022/06/10 10:53:48;;;;;;;;;;;;;;;;;;5104400;28;19939;-88
2022/06/10 10:56:13;;;;;;;;;;;;;;;;;;5104417;28;19912;-85
2022/06/10 10:58:39;;;;;;;;;;;;;;;;;;5090464;28;19946;-83
2022/06/10 11:01:04;;;;;;;;;;;;;;;;;;5107796;28;19912;-85
2022/06/10 11:03:30;;;;;;;;;;;;;;;;;;5108047;28;20278;-85
2022/06/10 11:05:55;;;;;;;;;;;;;;;;;;5104255;28;19908;-82
2022/06/10 11:08:21;;;;;;;;;;;;;;;;;;5079154;28;19923;-83
2022/06/10 11:10:50;;;;;;;;;;;;;;;;;;5080655;28;19916;-81
2022/06/10 11:13:15;;;;;;;;;;;;;;;;;;5060221;28;19928;-82
2022/06/10 11:15:41;;;;;;;;;;;;;;;;;;5096564;28;20026;-84
2022/06/10 11:18:10;;;;;;;;;;;;;;;;;;5116337;28;20260;-84
2022/06/10 11:20:36;;;;;;;;;;;;;;;;;;5104019;22;19929;-86
2022/06/10 11:23:04;;;;;;;;;;;;;;;;;;5018836;28;20339;-86
2022/06/10 11:25:31;;;;;;;;;;;;;;;;;;5021638;28;20008;-85
2022/06/10 11:27:57;;;;;;;;;;;;;;;;;;5039379;28;20419;-82
2022/06/10 11:30:22;;;;;;;;;;;;;;;;;;5026035;28;20300;-84
2022/06/10 11:32:48;;;;;;;;;;;;;;;;;;5041257;28;20364;-84
2022/06/10 11:35:22;;;;;;;;;;;;;;;;;;5043060;28;19909;-85
2022/06/10 11:37:48;;;;;;;;;;;;;;;;;;5058339;28;19924;-83
2022/06/10 11:40:14;;;;;;;;;;;;;;;;;;5037336;28;19982;-83
2022/06/10 11:42:40;;;;;;;;;;;;;;;;;;5069514;28;19917;-83
2022/06/10 11:45:05;;;;;;;;;;;;;;;;;;5057565;28;19916;-84
2022/06/10 11:47:34;;;;;;;;;;;;;;;;;;5054025;22;20027;-78
2022/06/10 11:49:59;;;;;;;;;;;;;;;;;;5033177;28;19972;-76
2022/06/10 11:52:24;;;;;;;;;;;;;;;;;;5033700;28;19963;-77
2022/06/10 11:54:50;;;;;;;;;;;;;;;;;;5032095;28;19917;-75
2022/06/10 12:00:03;;;;;;;;;;;;;;;;;;5042144;28;20172;-77
2022/06/10 12:02:31;;;;;;;;;;;;;;;;;;5045030;28;20003;-76
2022/06/10 12:04:56;;;;;;;;;;;;;;;;;;5042698;28;19913;-76
2022/06/10 12:07:22;;;;;;;;;;;;;;;;;;5051961;28;19913;-77
2022/06/10 12:09:48;;;;;;;;;;;;;;;;;;5018096;28;19916;-77
2022/06/10 12:12:13;;;;;;;;;;;;;;;;;;5020224;28;20396;-76
2022/06/10 12:14:40;;;;;;;;;;;;;;;;;;5024177;28;19920;-77
2022/06/10 12:17:06;;;;;;;;;;;;;;;;;;5028099;28;19917;-77
2022/06/10 12:19:31;;;;;;;;;;;;;;;;;;5049127;28;19931;-77
2022/06/10 12:21:59;;;;;;;;;;;;;;;;;;5034825;28;19964;-78
2022/06/10 12:24:25;;;;;;;;;;;;;;;;;;5045430;28;19913;-76
2022/06/10 12:26:50;;;;;;;;;;;;;;;;;;5028127;28;19913;-78
2022/06/10 12:29:16;;;;;;;;;;;;;;;;;;5049870;28;20232;-76
2022/06/10 12:31:41;;;;;;;;;;;;;;;;;;5045937;28;19967;-77
2022/06/10 12:34:08;;;;;;;;;;;;;;;;;;5034988;28;19913;-77
2022/06/10 12:36:34;;;;;;;;;;;;;;;;;;5051086;28;19920;-76
2022/06/10 12:39:00;;;;;;;;;;;;;;;;;;5067592;28;20303;-76
2022/06/10 12:41:25;;;;;;;;;;;;;;;;;;5051907;28;20303;-77
2022/06/10 12:43:51;;;;;;;;;;;;;;;;;;5034044;28;19953;-78
2022/06/10 12:46:17;;;;;;;;;;;;;;;;;;5046832;28;19913;-78
2022/06/10 12:48:42;;;;;;;;;;;;;;;;;;5054177;28;19924;-78
2022/06/10 12:51:08;;;;;;;;;;;;;;;;;;5066989;28;20003;-77
2022/06/10 12:53:33;;;;;;;;;;;;;;;;;;5058045;28;19936;-78
2022/06/10 12:55:59;;;;;;;;;;;;;;;;;;5051445;28;20303;-78
2022/06/10 12:58:24;;;;;;;;;;;;;;;;;;5053969;28;20398;-77
2022/06/10 13:00:51;;;;;;;;;;;;;;;;;;5062394;28;20034;-76
2022/06/10 13:03:17;;;;;;;;;;;;;;;;;;5065620;28;19966;-78
2022/06/10 13:05:47;;;;;;;;;;;;;;;;;;5057788;28;19916;-76
2022/06/10 13:08:12;;;;;;;;;;;;;;;;;;5067066;28;19956;-77
2022/06/10 13:10:38;;;;;;;;;;;;;;;;;;5061475;28;20003;-78
2022/06/10 13:13:03;;;;;;;;;;;;;;;;;;5050786;28;19913;-77
2022/06/10 13:15:29;;;;;;;;;;;;;;;;;;5065726;28;19919;-78
2022/06/10 13:17:55;;;;;;;;;;;;;;;;;;5020994;28;19920;-79
2022/06/10 13:20:22;;;;;;;;;;;;;;;;;;5069268;28;21277;-76
2022/06/10 13:22:48;;;;;;;;;;;;;;;;;;5059509;28;20008;-78
2022/06/10 13:25:13;;;;;;;;;;;;;;;;;;5013897;28;20283;-77
2022/06/10 13:27:39;;;;;;;;;;;;;;;;;;5050036;28;19939;-77
2022/06/10 13:30:05;;;;;;;;;;;;;;;;;;5072050;28;19962;-77
2022/06/10 13:32:30;;;;;;;;;;;;;;;;;;5050184;28;20409;-77
2022/06/10 13:34:55;;;;;;;;;;;;;;;;;;5062689;28;20015;-78
2022/06/10 13:37:23;;;;;;;;;;;;;;;;;;5058656;28;19924;-78
2022/06/10 13:39:48;;;;;;;;;;;;;;;;;;5019618;28;19920;-78
2022/06/10 13:42:14;;;;;;;;;;;;;;;;;;5071247;28;19909;-78
2022/06/10 13:44:39;;;;;;;;;;;;;;;;;;5063467;28;20346;-79
2022/06/10 13:47:10;;;;;;;;;;;;;;;;;;5053182;28;19924;-77
2022/06/10 13:49:46;;;;;;;;;;;;;;;;;;5074881;28;19912;-76
2022/06/10 13:52:11;;;;;;;;;;;;;;;;;;5056708;28;19912;-78
2022/06/10 13:54:37;;;;;;;;;;;;;;;;;;5071793;28;19962;-78
2022/06/10 13:57:03;;;;;;;;;;;;;;;;;;5056881;28;20016;-77
2022/06/10 13:59:31;;;;;;;;;;;;;;;;;;5032118;28;19912;-76
2022/06/10 14:01:57;;;;;;;;;;;;;;;;;;5058962;28;19995;-77
2022/06/10 14:04:22;;;;;;;;;;;;;;;;;;5057373;28;19951;-78
2022/06/10 14:06:48;;;;;;;;;;;;;;;;;;5061853;28;19928;-78
2022/06/10 14:09:13;;;;;;;;;;;;;;;;;;5063911;28;20501;-77
2022/06/10 14:11:39;;;;;;;;;;;;;;;;;;5051231;28;19922;-78
2022/06/10 14:14:04;;;;;;;;;;;;;;;;;;5064428;28;19913;-77
2022/06/10 14:16:30;;;;;;;;;;;;;;;;;;5065255;28;22305;-79
2022/06/10 14:18:56;;;;;;;;;;;;;;;;;;5070654;28;20367;-78
2022/06/10 14:21:21;;;;;;;;;;;;;;;;;;5059885;28;20383;-77
2022/06/10 14:23:56;;;;;;;;;;;;;;;;;;5055563;28;20363;-78
2022/06/10 14:26:21;;;;;;;;;;;;;;;;;;5056654;28;19920;-78
2022/06/10 14:28:47;;;;;;;;;;;;;;;;;;5064227;28;19911;-77
2022/06/10 14:31:16;;;;;;;;;;;;;;;;;;5070019;28;20010;-78
2022/06/10 14:33:41;;;;;;;;;;;;;;;;;;5044266;28;20319;-77
2022/06/10 14:36:06;;;;;;;;;;;;;;;;;;5053488;28;20123;-76
2022/06/10 14:38:33;;;;;;;;;;;;;;;;;;5056260;28;19924;-78
2022/06/10 14:40:59;;;;;;;;;;;;;;;;;;5063589;28;20331;-79
2022/06/10 14:43:25;;;;;;;;;;;;;;;;;;5056080;28;19909;-77
2022/06/10 14:45:53;;;;;;;;;;;;;;;;;;5062461;28;20433;-79
2022/06/10 14:48:18;;;;;;;;;;;;;;;;;;5048623;28;20340;-77
2022/06/10 14:50:44;;;;;;;;;;;;;;;;;;5063722;28;20003;-78
2022/06/10 14:53:13;;;;;;;;;;;;;;;;;;5073453;28;19969;-79
2022/06/10 14:55:38;;;;;;;;;;;;;;;;;;5040440;28;19991;-80
2022/06/10 14:58:04;;;;;;;;;;;;;;;;;;5057248;28;20026;-78
2022/06/10 15:00:29;;;;;;;;;;;;;;;;;;5067462;28;19908;-78
2022/06/10 15:02:54;;;;;;;;;;;;;;;;;;5055019;28;19939;-79
2022/06/10 15:08:04;;;;;;;;;;;;;;;;;;5055837;28;19912;-79
2022/06/10 15:10:30;;;;;;;;;;;;;;;;;;5066841;28;19920;-78
2022/06/10 15:12:55;;;;;;;;;;;;;;;;;;5039446;28;19919;-78
2022/06/10 15:15:21;;;;;;;;;;;;;;;;;;5072247;28;19913;-79
2022/06/10 15:17:46;;;;;;;;;;;;;;;;;;5056678;28;19932;-77
2022/06/10 15:20:11;;;;;;;;;;;;;;;;;;5051521;28;19920;-79
2022/06/10 15:22:37;;;;;;;;;;;;;;;;;;5059381;28;20390;-79
2022/06/10 15:25:02;;;;;;;;;;;;;;;;;;5064916;28;19919;-79
2022/06/10 15:27:28;;;;;;;;;;;;;;;;;;5058650;28;20051;-77
2022/06/10 15:29:53;;;;;;;;;;;;;;;;;;5070124;28;19928;-78
2022/06/10 15:32:19;;;;;;;;;;;;;;;;;;5058941;28;19996;-76
2022/06/10 15:42:56;;;;;;;;;;;;;;;;;;5062937;28;20392;-78
2022/06/10 15:45:22;;;;;;;;;;;;;;;;;;5067447;28;19909;-78
2022/06/10 15:47:48;;;;;;;;;;;;;;;;;;5056608;28;19921;-78
2022/06/10 15:50:14;;;;;;;;;;;;;;;;;;5065791;28;19920;-78
2022/06/10 15:52:39;;;;;;;;;;;;;;;;;;5063843;28;20490;-77
2022/06/10 15:57:49;;;;;;;;;;;;;;;;;;5070802;28;19921;-78
2022/06/10 16:00:15;;;;;;;;;;;;;;;;;;5052532;28;20337;-79
2022/06/10 16:02:41;;;;;;;;;;;;;;;;;;5055378;28;19958;-78
2022/06/10 16:05:06;;;;;;;;;;;;;;;;;;5035019;28;19913;-77
2022/06/10 16:07:32;;;;;;;;;;;;;;;;;;5066257;28;20318;-77
2022/06/10 16:09:57;;;;;;;;;;;;;;;;;;5052419;28;19913;-77
2022/06/10 16:15:07;;;;;;;;;;;;;;;;;;5064632;28;19934;-76
2022/06/10 16:17:32;;;;;;;;;;;;;;;;;;5059976;28;19980;-79
2022/06/10 16:19:58;;;;;;;;;;;;;;;;;;5061326;28;19912;-75
2022/06/10 16:22:23;;;;;;;;;;;;;;;;;;5074699;28;20401;-76
2022/06/10 16:24:48;;;;;;;;;;;;;;;;;;5060283;28;19935;-77
2022/06/10 16:27:14;;;;;;;;;;;;;;;;;;5069251;28;19920;-76
2022/06/10 16:29:39;;;;;;;;;;;;;;;;;;5080824;28;19916;-76
2022/06/10 16:32:07;;;;;;;;;;;;;;;;;;5082457;28;19920;-77
2022/06/10 16:34:33;;;;;;;;;;;;;;;;;;5075233;28;19913;-78
2022/06/10 16:37:00;;;;;;;;;;;;;;;;;;5044730;28;20291;-77
2022/06/10 16:39:25;;;;;;;;;;;;;;;;;;5054580;28;20007;-77
2022/06/10 16:41:51;;;;;;;;;;;;;;;;;;5062029;28;20001;-76
2022/06/10 16:44:20;;;;;;;;;;;;;;;;;;5063102;28;19921;-77
2022/06/10 16:46:46;;;;;;;;;;;;;;;;;;5050336;28;19993;-77
2022/06/10 16:49:11;;;;;;;;;;;;;;;;;;5057090;28;19916;-77
2022/06/10 16:51:37;;;;;;;;;;;;;;;;;;5041238;28;19924;-76
2022/06/10 16:54:02;;;;;;;;;;;;;;;;;;5071625;28;19912;-76
2022/06/10 16:56:27;;;;;;;;;;;;;;;;;;5053525;28;19951;-77
2022/06/10 16:58:53;;;;;;;;;;;;;;;;;;5059351;28;19948;-77
2022/06/10 17:01:18;;;;;;;;;;;;;;;;;;5058735;28;20269;-78
2022/06/10 17:03:44;;;;;;;;;;;;;;;;;;5018513;28;20011;-79
2022/06/10 17:06:09;;;;;;;;;;;;;;;;;;5050961;28;19960;-77
2022/06/10 17:08:34;;;;;;;;;;;;;;;;;;5059541;28;19913;-76
2022/06/10 17:11:00;;;;;;;;;;;;;;;;;;5033867;28;20038;-74
2022/06/10 17:13:25;;;;;;;;;;;;;;;;;;5061856;28;20398;-76
2022/06/10 17:15:51;;;;;;;;;;;;;;;;;;5052472;28;19997;-77